createdAt,value
2023-04-01T00:01:01.900Z,79.63
2023-04-01T00:03:35.384Z,79.25
2023-04-01T00:06:08.542Z,78.66
2023-04-01T00:08:42.689Z,79.10
2023-04-01T00:11:15.827Z,78.75
2023-04-01T00:13:49.327Z,79.59
2023-04-01T00:16:22.757Z,78.75
2023-04-01T00:18:55.723Z,78.92
2023-04-01T00:21:28.497Z,78.57
2023-04-01T00:24:02.902Z,79.11
2023-04-01T00:26:35.624Z,79.08
2023-04-01T00:29:09.209Z,79.21
2023-04-01T00:31:41.902Z,79.03
2023-04-01T00:34:14.835Z,78.41
2023-04-01T00:36:47.700Z,79.35
2023-04-01T00:39:21.904Z,79.27
2023-04-01T00:41:54.631Z,79.11
2023-04-01T00:44:28.570Z,78.97
2023-04-01T00:47:01.636Z,78.86
2023-04-01T00:49:35.842Z,79.06
2023-04-01T00:52:10.409Z,78.78
2023-04-01T00:54:47.369Z,79.05
2023-04-01T00:57:22.067Z,78.65
2023-04-01T00:59:56.329Z,78.53
2023-04-01T01:02:29.238Z,79.51
2023-04-01T01:05:02.001Z,79.68
2023-04-01T01:07:40.134Z,79.19
2023-04-01T01:10:18.738Z,78.19
2023-04-01T01:12:55.940Z,78.97
2023-04-01T01:15:31.536Z,78.83
2023-04-01T01:18:08.252Z,79.49
2023-04-01T01:21:08.446Z,80.31
2023-04-01T01:23:54.045Z,79.55
2023-04-01T01:26:39.457Z,80.25
2023-04-01T01:29:18.029Z,79.81
2023-04-01T01:31:56.886Z,79.25
2023-04-01T01:34:33.337Z,79.93
2023-04-01T01:37:11.299Z,80.47
2023-04-01T01:39:45.373Z,79.50
2023-04-01T01:42:19.956Z,79.37
2023-04-01T01:44:53.480Z,79.11
2023-04-01T01:47:27.400Z,79.34
2023-04-01T01:50:01.050Z,78.93
2023-04-01T01:52:35.161Z,78.13
2023-04-01T01:55:22.612Z,78.74
2023-04-01T01:57:56.820Z,78.22
2023-04-01T02:00:30.061Z,79.22
2023-04-01T02:03:02.989Z,79.28
2023-04-01T02:05:36.686Z,79.77
2023-04-01T02:08:13.272Z,79.68
2023-04-01T02:10:49.755Z,79.66
2023-04-01T02:13:27.609Z,79.69
2023-04-01T02:16:02.738Z,78.98
2023-04-01T02:18:38.813Z,79.01
2023-04-01T02:21:12.028Z,79.11
2023-04-01T02:23:47.744Z,77.96
2023-04-01T02:26:20.965Z,78.66
2023-04-01T02:28:54.979Z,78.91
2023-04-01T02:31:27.912Z,73.27
2023-04-01T02:34:00.959Z,76.27
2023-04-01T02:36:34.064Z,77.47
2023-04-01T02:39:09.048Z,77.33
2023-04-01T02:41:41.999Z,77.37
2023-04-01T02:44:15.827Z,76.51
2023-04-01T02:46:48.547Z,77.14
2023-04-01T02:49:21.681Z,78.15
2023-04-01T02:51:54.435Z,78.21
2023-04-01T02:54:28.576Z,78.90
2023-04-01T02:57:01.583Z,78.32
2023-04-01T02:59:34.803Z,79.17
2023-04-01T03:02:07.895Z,78.83
2023-04-01T03:04:40.654Z,78.62
2023-04-01T03:07:13.494Z,78.30
2023-04-01T03:09:47.609Z,78.93
2023-04-01T03:12:20.261Z,76.95
2023-04-01T03:14:52.940Z,78.19
2023-04-01T03:17:25.805Z,77.62
2023-04-01T03:19:58.666Z,77.39
2023-04-01T03:22:31.319Z,77.32
2023-04-01T03:25:05.901Z,76.66
2023-04-01T03:27:38.676Z,76.27
2023-04-01T03:30:11.772Z,76.42
2023-04-01T03:32:44.542Z,76.09
2023-04-01T03:35:17.416Z,76.07
2023-04-01T03:37:50.078Z,75.99
2023-04-01T03:40:24.826Z,75.66
2023-04-01T03:42:57.742Z,76.38
2023-04-01T03:45:30.739Z,76.21
2023-04-01T03:48:03.739Z,76.96
2023-04-01T03:50:36.578Z,75.57
2023-04-01T03:53:09.619Z,76.39
2023-04-01T03:55:43.645Z,76.85
2023-04-01T03:58:16.744Z,76.89
2023-04-01T04:00:49.820Z,77.28
2023-04-01T04:03:22.707Z,77.48
2023-04-01T04:05:56.767Z,76.84
2023-04-01T04:08:29.354Z,78.08
2023-04-01T04:11:03.539Z,77.51
2023-04-01T04:13:36.969Z,76.53
2023-04-01T04:16:10.833Z,77.19
2023-04-01T04:18:43.621Z,76.82
2023-04-01T04:21:17.011Z,77.30
2023-04-01T04:23:49.727Z,78.00
2023-04-01T04:26:23.817Z,78.59
2023-04-01T04:28:57.082Z,78.33
2023-04-01T04:31:29.976Z,78.86
2023-04-01T04:34:02.910Z,78.18
2023-04-01T04:36:35.931Z,77.94
2023-04-01T04:39:08.605Z,77.82
2023-04-01T04:41:43.697Z,77.26
2023-04-01T04:44:16.437Z,78.53
2023-04-01T04:46:49.469Z,78.03
2023-04-01T04:49:22.179Z,77.58
2023-04-01T04:51:54.876Z,77.91
2023-04-01T04:54:27.528Z,78.12
2023-04-01T04:57:01.882Z,77.51
2023-04-01T04:59:34.515Z,77.06
2023-04-01T05:02:07.573Z,76.52
2023-04-01T05:04:40.438Z,77.09
2023-04-01T05:07:13.502Z,77.99
2023-04-01T05:09:47.931Z,77.51
2023-04-01T05:12:22.167Z,78.67
2023-04-01T05:14:54.865Z,78.74
2023-04-01T05:17:27.659Z,78.34
2023-04-01T05:20:00.497Z,78.51
2023-04-01T05:22:33.214Z,78.15
2023-04-01T05:25:06.234Z,77.96
2023-04-01T05:27:40.320Z,78.34
2023-04-01T05:30:13.568Z,78.48
2023-04-01T05:32:46.402Z,78.58
2023-04-01T05:35:19.079Z,78.66
2023-04-01T05:37:52.268Z,78.52
2023-04-01T05:40:24.971Z,79.36
2023-04-01T05:42:59.256Z,78.72
2023-04-01T05:45:32.115Z,78.71
2023-04-01T05:48:05.441Z,78.58
2023-04-01T05:50:38.092Z,78.76
2023-04-01T05:53:10.856Z,78.38
2023-04-01T05:55:43.628Z,79.62
2023-04-01T05:58:17.751Z,79.12
2023-04-01T06:01:02.281Z,78.60
2023-04-01T06:03:41.473Z,79.15
2023-04-01T06:06:16.591Z,78.75
2023-04-01T06:08:50.889Z,77.47
2023-04-01T06:11:29.485Z,79.28
2023-04-01T06:14:17.038Z,78.96
2023-04-01T06:16:58.977Z,78.89
2023-04-01T06:19:38.329Z,78.58
2023-04-01T06:22:28.467Z,78.98
2023-04-01T06:25:10.424Z,78.31
2023-04-01T06:27:51.677Z,78.33
2023-04-01T06:30:32.539Z,78.60
2023-04-01T06:33:27.211Z,79.60
2023-04-01T06:36:07.288Z,79.80
2023-04-01T06:38:57.548Z,80.49
2023-04-01T06:41:33.399Z,80.08
2023-04-01T06:44:11.307Z,79.73
2023-04-01T06:46:47.925Z,79.34
2023-04-01T06:49:44.497Z,79.92
2023-04-01T06:52:22.862Z,79.82
2023-04-01T06:54:58.787Z,80.40
2023-04-01T06:57:33.792Z,79.83
2023-04-01T07:00:14.102Z,81.22
2023-04-01T07:02:54.801Z,81.48
2023-04-01T07:05:31.757Z,81.13
2023-04-01T07:08:10.260Z,80.88
2023-04-01T07:10:46.947Z,81.03
2023-04-01T07:13:23.236Z,81.14
2023-04-01T07:16:02.258Z,80.69
2023-04-01T07:18:39.072Z,80.82
2023-04-01T07:21:17.991Z,80.61
2023-04-01T07:23:54.317Z,78.31
2023-04-01T07:26:27.801Z,78.86
2023-04-01T07:29:00.672Z,74.75
2023-04-01T07:31:43.931Z,78.07
2023-04-01T07:34:20.371Z,77.24
2023-04-01T07:36:56.878Z,76.18
2023-04-01T07:39:36.055Z,78.02
2023-04-01T07:42:11.916Z,77.28
2023-04-01T07:44:51.579Z,78.41
2023-04-01T07:47:32.462Z,77.67
2023-04-01T07:50:11.395Z,77.91
2023-04-01T07:52:46.738Z,78.17
2023-04-01T07:55:24.969Z,77.69
2023-04-01T07:58:02.437Z,77.91
2023-04-01T08:00:39.764Z,77.95
2023-04-01T08:03:19.266Z,78.15
2023-04-01T08:05:55.750Z,77.39
2023-04-01T08:08:35.589Z,78.69
2023-04-01T08:11:15.076Z,78.27
2023-04-01T08:13:53.167Z,79.37
2023-04-01T08:16:34.336Z,78.64
2023-04-01T08:19:15.966Z,78.53
2023-04-01T08:21:51.879Z,78.52
2023-04-01T08:24:31.775Z,77.62
2023-04-01T08:27:16.274Z,75.24
2023-04-01T08:29:52.288Z,75.68
2023-04-01T08:32:28.368Z,76.37
2023-04-01T08:35:09.183Z,77.11
2023-04-01T08:37:43.392Z,77.53
2023-04-01T08:40:27.691Z,76.86
2023-04-01T08:43:07.601Z,77.11
2023-04-01T08:45:58.143Z,76.99
2023-04-01T08:48:41.321Z,76.99
2023-04-01T08:51:29.220Z,75.81
2023-04-01T08:54:10.027Z,76.24
2023-04-01T08:56:44.969Z,76.61
2023-04-01T08:59:32.123Z,76.40
2023-04-01T09:02:16.812Z,77.03
2023-04-01T09:05:00.795Z,75.56
2023-04-01T09:07:39.620Z,76.60
2023-04-01T09:10:30.277Z,76.29
2023-04-01T09:13:13.232Z,76.27
2023-04-01T09:16:01.233Z,76.67
2023-04-01T09:18:51.570Z,76.89
2023-04-01T09:21:34.204Z,76.23
2023-04-01T09:24:19.398Z,77.27
2023-04-01T09:27:04.219Z,77.01
2023-04-01T09:29:51.833Z,77.34
2023-04-01T09:32:39.611Z,77.41
2023-04-01T09:35:23.301Z,77.16
2023-04-01T09:38:02.619Z,77.33
2023-04-01T09:40:39.871Z,77.63
2023-04-01T09:43:23.909Z,77.29
2023-04-01T09:46:05.058Z,77.61
2023-04-01T09:48:55.983Z,77.35
2023-04-01T09:51:35.859Z,77.63
2023-04-01T09:54:22.246Z,78.42
2023-04-01T09:57:04.980Z,78.48
2023-04-01T09:59:59.190Z,78.81
2023-04-01T10:02:57.570Z,79.58
2023-04-01T10:05:42.798Z,78.75
2023-04-01T10:08:31.934Z,78.60
2023-04-01T10:11:26.397Z,80.08
2023-04-01T10:14:13.953Z,78.36
2023-04-01T10:17:02.650Z,79.66
2023-04-01T10:19:56.414Z,80.69
2023-04-01T10:22:49.060Z,81.01
2023-04-01T10:25:35.959Z,82.23
2023-04-01T10:28:23.728Z,82.12
2023-04-01T10:31:15.005Z,82.41
2023-04-01T10:34:05.767Z,80.67
2023-04-01T10:36:54.289Z,81.04
2023-04-01T10:39:35.305Z,79.96
2023-04-01T10:42:31.714Z,79.14
2023-04-01T10:45:23.082Z,77.82
2023-04-01T10:48:14.416Z,78.27
2023-04-01T10:51:04.827Z,75.47
2023-04-01T10:53:43.885Z,78.65
2023-04-01T10:56:37.313Z,79.52
2023-04-01T10:59:30.503Z,79.74
2023-04-01T11:02:18.198Z,80.24
2023-04-01T11:05:25.501Z,79.09
2023-04-01T11:08:20.353Z,77.01
2023-04-01T11:11:10.423Z,78.13
2023-04-01T11:14:10.228Z,80.61
2023-04-01T11:16:57.861Z,80.98
2023-04-01T11:19:48.623Z,73.34
2023-04-01T11:22:35.114Z,76.38
2023-04-01T11:25:26.879Z,78.82
2023-04-01T11:28:10.361Z,79.06
2023-04-01T11:31:01.702Z,75.49
2023-04-01T11:33:38.282Z,75.15
2023-04-01T11:36:17.359Z,76.80
2023-04-01T11:39:02.897Z,78.44
2023-04-01T11:41:39.638Z,77.26
2023-04-01T11:44:20.213Z,79.10
2023-04-01T11:47:09.124Z,77.50
2023-04-01T11:49:49.963Z,77.61
2023-04-01T11:52:36.157Z,78.70
2023-04-01T11:55:16.709Z,76.38
2023-04-01T11:57:57.668Z,76.43
2023-04-01T12:00:44.172Z,77.13
2023-04-01T12:03:25.237Z,74.96
2023-04-01T12:06:04.083Z,75.30
2023-04-01T12:08:43.126Z,76.05
2023-04-01T12:11:19.811Z,75.32
2023-04-01T12:13:57.496Z,75.22
2023-04-01T12:16:45.749Z,75.57
2023-04-01T12:19:22.382Z,74.35
2023-04-01T12:22:04.594Z,71.54
2023-04-01T12:24:45.277Z,70.91
2023-04-01T12:27:32.823Z,73.58
2023-04-01T12:30:16.887Z,72.51
2023-04-01T12:32:55.524Z,74.78
2023-04-01T12:35:30.485Z,74.19
2023-04-01T12:38:12.770Z,72.61
2023-04-01T12:40:51.348Z,73.15
2023-04-01T12:43:38.906Z,73.01
2023-04-01T12:46:18.472Z,72.90
2023-04-01T12:49:01.144Z,72.57
2023-04-01T12:51:40.567Z,69.33
2023-04-01T12:54:25.032Z,69.64
2023-04-01T12:57:07.106Z,70.48
2023-04-01T12:59:52.293Z,70.09
2023-04-01T13:02:31.201Z,71.60
2023-04-01T13:05:16.745Z,71.62
2023-04-01T13:07:55.680Z,73.48
2023-04-01T13:10:45.070Z,74.41
2023-04-01T13:13:25.841Z,74.73
2023-04-01T13:16:01.053Z,75.17
2023-04-01T13:18:38.814Z,74.27
2023-04-01T13:21:18.501Z,75.51
2023-04-01T13:23:58.257Z,75.41
2023-04-01T13:26:35.780Z,76.01
2023-04-01T13:29:13.226Z,72.21
2023-04-01T13:32:05.737Z,75.27
2023-04-01T13:34:48.648Z,73.08
2023-04-01T13:37:29.211Z,75.09
2023-04-01T13:40:16.516Z,72.09
2023-04-01T13:42:51.701Z,78.44
2023-04-01T13:45:25.748Z,78.63
2023-04-01T13:48:11.805Z,77.74
2023-04-01T13:50:55.457Z,79.52
2023-04-01T13:53:43.184Z,78.67
2023-04-01T13:56:26.449Z,79.28
2023-04-01T13:59:14.082Z,75.82
2023-04-01T14:01:51.484Z,76.52
2023-04-01T14:04:34.740Z,77.31
2023-04-01T14:07:16.312Z,75.35
2023-04-01T14:10:01.831Z,74.84
2023-04-01T14:12:41.163Z,74.33
2023-04-01T14:15:28.671Z,75.50
2023-04-01T14:18:09.454Z,75.02
2023-04-01T14:20:43.711Z,73.62
2023-04-01T14:23:32.609Z,74.64
2023-04-01T14:26:11.153Z,72.65
2023-04-01T14:28:49.422Z,73.69
2023-04-01T14:31:32.868Z,68.30
2023-04-01T14:34:09.220Z,72.49
2023-04-01T14:36:55.781Z,73.17
2023-04-01T14:39:43.354Z,72.84
2023-04-01T14:42:26.298Z,74.25
2023-04-01T14:45:16.999Z,73.05
2023-04-01T14:47:52.959Z,70.67
2023-04-01T14:50:27.770Z,68.60
2023-04-01T14:53:13.669Z,65.32
2023-04-01T14:55:51.678Z,63.01
2023-04-01T14:58:26.871Z,66.75
2023-04-01T15:01:11.083Z,66.56
2023-04-01T15:03:52.585Z,67.22
2023-04-01T15:06:44.301Z,67.76
2023-04-01T15:09:23.697Z,69.16
2023-04-01T15:12:05.270Z,70.13
2023-04-01T15:14:55.891Z,71.01
2023-04-01T15:17:44.042Z,71.61
2023-04-01T15:20:27.885Z,72.02
2023-04-01T15:23:05.264Z,72.25
2023-04-01T15:25:47.740Z,72.93
2023-04-01T15:28:25.741Z,73.42
2023-04-01T15:31:02.669Z,73.15
2023-04-01T15:33:43.470Z,73.79
2023-04-01T15:36:23.950Z,73.71
2023-04-01T15:39:01.286Z,74.25
2023-04-01T15:41:41.557Z,74.59
2023-04-01T15:44:39.501Z,75.08
2023-04-01T15:47:30.676Z,74.96
2023-04-01T15:50:19.831Z,75.21
2023-04-01T15:53:02.705Z,75.78
2023-04-01T15:55:41.211Z,75.58
2023-04-01T15:58:29.183Z,75.71
2023-04-01T16:01:10.008Z,75.90
2023-04-01T16:03:45.577Z,76.04
2023-04-01T16:06:39.404Z,76.10
2023-04-01T16:09:21.849Z,76.09
2023-04-01T16:11:59.145Z,75.38
2023-04-01T16:14:38.906Z,75.11
2023-04-01T16:17:17.756Z,75.02
2023-04-01T16:19:53.765Z,74.47
2023-04-01T16:22:29.227Z,74.42
2023-04-01T16:25:17.334Z,74.22
2023-04-01T16:27:56.469Z,74.49
2023-04-01T16:30:38.904Z,74.41
2023-04-01T16:33:15.574Z,74.31
2023-04-01T16:35:49.888Z,74.38
2023-04-01T16:38:27.597Z,73.98
2023-04-01T16:41:07.754Z,74.23
2023-04-01T16:43:47.447Z,74.02
2023-04-01T16:46:33.041Z,74.20
2023-04-01T16:49:24.776Z,74.58
2023-04-01T16:52:06.846Z,74.98
2023-04-01T16:54:43.972Z,75.30
2023-04-01T16:57:21.135Z,75.00
2023-04-01T17:00:03.017Z,76.19
2023-04-01T17:02:38.726Z,76.11
2023-04-01T17:05:14.175Z,75.71
2023-04-01T17:07:50.312Z,75.62
2023-04-01T17:10:47.115Z,75.79
2023-04-01T17:13:27.439Z,75.29
2023-04-01T17:16:05.107Z,75.03
2023-04-01T17:18:44.699Z,76.36
2023-04-01T17:21:20.276Z,76.20
2023-04-01T17:23:53.544Z,76.02
2023-04-01T17:26:31.288Z,76.73
2023-04-01T17:29:09.422Z,76.11
2023-04-01T17:31:48.340Z,76.13
2023-04-01T17:34:27.834Z,75.94
2023-04-01T17:37:08.700Z,75.66
2023-04-01T17:39:46.788Z,75.06
2023-04-01T17:42:24.597Z,75.13
2023-04-01T17:45:02.969Z,75.31
2023-04-01T17:47:47.030Z,74.42
2023-04-01T17:50:23.625Z,74.88
2023-04-01T17:53:05.712Z,74.97
2023-04-01T17:55:51.318Z,75.16
2023-04-01T17:58:25.065Z,74.56
2023-04-01T18:01:16.307Z,74.42
2023-04-01T18:04:03.644Z,74.32
2023-04-01T18:06:39.190Z,74.32
2023-04-01T18:09:20.716Z,75.43
2023-04-01T18:12:01.453Z,74.87
2023-04-01T18:14:43.100Z,74.96
2023-04-01T18:17:22.177Z,74.70
2023-04-01T18:20:03.085Z,74.90
2023-04-01T18:22:39.847Z,74.90
2023-04-01T18:25:17.176Z,74.64
2023-04-01T18:27:51.944Z,74.90
2023-04-01T18:30:30.107Z,75.13
2023-04-01T18:33:05.849Z,74.91
2023-04-01T18:35:49.675Z,75.25
2023-04-01T18:38:30.540Z,75.07
2023-04-01T18:41:14.514Z,74.94
2023-04-01T18:43:57.382Z,74.91
2023-04-01T18:46:33.652Z,74.81
2023-04-01T18:49:15.861Z,74.41
2023-04-01T18:51:54.807Z,74.73
2023-04-01T18:54:29.378Z,74.54
2023-04-01T18:57:07.179Z,74.39
2023-04-01T18:59:42.901Z,74.30
2023-04-01T19:02:28.949Z,73.73
2023-04-01T19:05:04.633Z,73.97
2023-04-01T19:07:46.892Z,73.80
2023-04-01T19:10:24.059Z,74.35
2023-04-01T19:13:13.867Z,74.55
2023-04-01T19:15:49.679Z,74.03
2023-04-01T19:18:28.082Z,74.49
2023-04-01T19:21:03.564Z,74.83
2023-04-01T19:23:45.203Z,75.07
2023-04-01T19:26:24.513Z,74.61
2023-04-01T19:28:59.148Z,75.12
2023-04-01T19:31:46.372Z,75.37
2023-04-01T19:34:23.943Z,75.24
2023-04-01T19:36:58.833Z,74.88
2023-04-01T19:39:39.634Z,75.11
2023-04-01T19:42:18.356Z,75.76
2023-04-01T19:44:56.041Z,76.32
2023-04-01T19:47:38.783Z,76.27
2023-04-01T19:50:22.546Z,76.32
2023-04-01T19:52:57.239Z,76.68
2023-04-01T19:55:36.615Z,76.76
2023-04-01T19:58:16.313Z,77.15
2023-04-01T20:00:52.563Z,76.46
2023-04-01T20:03:36.965Z,76.04
2023-04-01T20:06:17.917Z,76.14
2023-04-01T20:08:57.007Z,76.46
2023-04-01T20:11:44.598Z,75.89
2023-04-01T20:14:24.666Z,75.62
2023-04-01T20:17:12.474Z,75.76
2023-04-01T20:19:47.918Z,75.31
2023-04-01T20:22:32.150Z,74.94
2023-04-01T20:25:11.709Z,75.62
2023-04-01T20:27:48.728Z,75.87
2023-04-01T20:30:29.231Z,75.46
2023-04-01T20:33:09.193Z,75.37
2023-04-01T20:35:48.240Z,75.88
2023-04-01T20:38:48.793Z,76.03
2023-04-01T20:41:26.392Z,75.48
2023-04-01T20:44:05.908Z,76.05
2023-04-01T20:46:56.250Z,76.03
2023-04-01T20:49:36.191Z,75.92
2023-04-01T20:52:18.580Z,75.88
2023-04-01T20:55:01.884Z,75.82
2023-04-01T20:57:39.516Z,75.61
2023-04-01T21:00:24.689Z,75.65
2023-04-01T21:03:08.661Z,75.57
2023-04-01T21:06:01.704Z,75.56
2023-04-01T21:08:49.203Z,74.85
2023-04-01T21:11:27.605Z,74.70
2023-04-01T21:14:09.480Z,74.91
2023-04-01T21:16:46.265Z,74.93
2023-04-01T21:19:34.328Z,75.02
2023-04-01T21:22:17.816Z,75.47
2023-04-01T21:25:01.131Z,75.84
2023-04-01T21:27:42.490Z,75.49
2023-04-01T21:30:26.406Z,74.86
2023-04-01T21:33:08.077Z,75.24
2023-04-01T21:35:46.808Z,75.26
2023-04-01T21:38:30.115Z,74.88
2023-04-01T21:41:17.596Z,74.96
2023-04-01T21:44:02.496Z,74.73
2023-04-01T21:46:49.747Z,74.64
2023-04-01T21:49:29.467Z,74.57
2023-04-01T21:52:20.110Z,74.86
2023-04-01T21:55:04.480Z,75.10
2023-04-01T21:57:54.382Z,74.59
2023-04-01T22:00:28.898Z,74.60
2023-04-01T22:03:33.363Z,74.31
2023-04-01T22:06:11.359Z,73.96
2023-04-01T22:08:49.632Z,74.51
2023-04-01T22:11:33.387Z,74.62
2023-04-01T22:14:11.555Z,75.14
2023-04-01T22:16:48.718Z,75.46
2023-04-01T22:19:23.166Z,76.25
2023-04-01T22:22:03.599Z,75.68
2023-04-01T22:24:40.921Z,76.00
2023-04-01T22:27:19.899Z,75.82
2023-04-01T22:30:01.524Z,75.85
2023-04-01T22:32:39.259Z,75.33
2023-04-01T22:35:16.457Z,75.32
2023-04-01T22:37:55.589Z,75.42
2023-04-01T22:40:32.380Z,75.58
2023-04-01T22:43:09.068Z,75.90
2023-04-01T22:46:06.124Z,76.28
2023-04-01T22:48:42.480Z,77.51
2023-04-01T22:51:17.958Z,77.08
2023-04-01T22:53:57.167Z,77.52
2023-04-01T22:56:32.261Z,77.20
2023-04-01T22:59:10.668Z,78.05
2023-04-01T23:01:47.157Z,77.73
2023-04-01T23:04:24.215Z,77.79
2023-04-01T23:06:58.888Z,77.80
2023-04-01T23:09:33.716Z,78.14
2023-04-01T23:12:09.213Z,77.47
2023-04-01T23:14:47.606Z,77.09
2023-04-01T23:17:29.025Z,77.08
2023-04-01T23:20:06.931Z,76.65
2023-04-01T23:22:45.647Z,76.79
2023-04-01T23:25:24.958Z,76.02
2023-04-01T23:28:00.572Z,75.53
2023-04-01T23:30:50.869Z,75.80
2023-04-01T23:33:29.264Z,75.56
2023-04-01T23:36:06.984Z,75.45
2023-04-01T23:38:42.730Z,75.66
2023-04-01T23:41:19.970Z,75.25
2023-04-01T23:43:56.594Z,76.19
2023-04-01T23:46:31.775Z,76.25
2023-04-01T23:49:06.030Z,76.41
2023-04-01T23:51:40.551Z,76.47
2023-04-01T23:54:15.769Z,76.28
2023-04-01T23:56:50.627Z,76.28
2023-04-01T23:59:25.522Z,76.31
